Time;durP1;ratioP1;P1;durP2;ratioP2;P2;SDS_P1;SDS_P2;PMS_P1;PMS_P2;Temp;Humidity;BMP_temperature;BMP_pressure;BME280_temperature;BME280_humidity;BME280_pressure;Samples;Min_cycle;Max_cycle;Signal;HPM_P1;HPM_P2
2023/06/15 00:01:28;;;;;;;4.25;3.65;;;;;;;-146.58;100.00;69501.63;5014515;28;20030;-65
2023/06/15 00:03:53;;;;;;;7.35;3.13;;;;;;;-146.58;100.00;69501.63;5012347;28;20061;-64
2023/06/15 00:06:18;;;;;;;8.73;3.80;;;;;;;-146.58;100.00;69501.63;5013656;28;20025;-65
2023/06/15 00:08:44;;;;;;;3.90;3.40;;;;;;;-146.58;100.00;69501.63;5012627;28;20038;-64
2023/06/15 00:11:09;;;;;;;6.45;3.30;;;;;;;-146.58;100.00;69501.63;5014239;28;20500;-64
2023/06/15 00:13:35;;;;;;;4.05;3.42;;;;;;;-146.58;100.00;69501.63;5011717;28;20111;-64
2023/06/15 00:16:00;;;;;;;8.90;4.22;;;;;;;-146.58;100.00;69501.63;5013977;28;20018;-64
2023/06/15 00:18:26;;;;;;;7.60;4.13;;;;;;;-146.58;100.00;69501.63;5012718;28;20042;-64
2023/06/15 00:20:51;;;;;;;5.28;4.28;;;;;;;-146.58;100.00;69501.63;5013247;28;20021;-64
2023/06/15 00:23:17;;;;;;;5.88;3.95;;;;;;;-146.58;100.00;69501.63;5012501;28;20520;-64
2023/06/15 00:25:43;;;;;;;5.60;4.28;;;;;;;-146.58;100.00;69501.63;5013559;28;20018;-64
2023/06/15 00:28:08;;;;;;;5.78;3.88;;;;;;;-146.58;100.00;69501.63;5011968;28;20096;-63
2023/06/15 00:30:33;;;;;;;9.25;4.57;;;;;;;-146.58;100.00;69501.63;5013814;28;20216;-64
2023/06/15 00:32:59;;;;;;;7.50;3.60;;;;;;;-146.58;100.00;69501.63;5013200;28;20018;-64
2023/06/15 00:35:24;;;;;;;8.90;4.57;;;;;;;-146.58;100.00;69501.63;5011544;28;20037;-64
2023/06/15 00:37:50;;;;;;;13.57;5.13;;;;;;;-146.58;100.00;69501.63;5012840;28;20025;-64
2023/06/15 00:40:15;;;;;;;6.68;4.57;;;;;;;-146.58;100.00;69501.63;5011899;28;20103;-64
2023/06/15 00:42:41;;;;;;;4.47;3.80;;;;;;;-146.58;100.00;69501.63;5012920;28;20037;-64
2023/06/15 00:45:07;;;;;;;5.00;4.32;;;;;;;-146.58;100.00;69501.63;5011810;28;20037;-64
2023/06/15 00:47:38;;;;;;;9.70;4.65;;;;;;;-146.58;100.00;69501.63;5013629;28;20018;-64
2023/06/15 00:50:09;;;;;;;8.82;4.70;;;;;;;-146.58;100.00;69501.63;5011342;28;20038;-64
2023/06/15 00:52:35;;;;;;;4.93;4.05;;;;;;;-146.58;100.00;69501.63;5013132;28;20148;-64
2023/06/15 00:55:01;;;;;;;8.02;4.28;;;;;;;-146.58;100.00;69501.63;5011274;28;20129;-64
2023/06/15 00:57:26;;;;;;;5.82;4.97;;;;;;;-146.58;100.00;69501.63;5012861;28;20026;-64
2023/06/15 00:59:51;;;;;;;5.65;4.15;;;;;;;-146.58;100.00;69501.63;5011413;28;20540;-64
2023/06/15 01:02:18;;;;;;;7.97;5.30;;;;;;;-146.58;100.00;69501.63;5012823;28;20033;-63
2023/06/15 01:04:43;;;;;;;6.05;5.20;;;;;;;-146.58;100.00;69501.63;5011486;28;20045;-64
2023/06/15 01:07:10;;;;;;;5.63;4.43;;;;;;;-146.58;100.00;69501.63;5012469;28;20018;-64
2023/06/15 01:09:39;;;;;;;6.68;4.68;;;;;;;-146.58;100.00;69501.63;5011623;28;20038;-64
2023/06/15 01:12:11;;;;;;;;;;;;;;;-146.58;100.00;69501.63;5013552;28;20092;-64
2023/06/15 01:14:37;;;;;;;6.32;4.75;;;;;;;-146.58;100.00;69501.63;5011277;28;19913;-64
2023/06/15 01:17:06;;;;;;;7.70;4.90;;;;;;;-146.58;100.00;69501.63;5012397;28;20102;-64
2023/06/15 01:19:34;;;;;;;6.75;4.55;;;;;;;-146.58;100.00;69501.63;5011189;28;20052;-64
2023/06/15 01:22:14;;;;;;;14.18;8.77;;;;;;;-146.58;100.00;69501.63;5012485;28;20037;-64
2023/06/15 01:24:50;;;;;;;15.80;8.52;;;;;;;-146.58;100.00;69501.63;5010935;28;20057;-64
2023/06/15 01:27:18;;;;;;;9.70;5.28;;;;;;;-146.58;100.00;69501.63;5012372;28;20384;-64
2023/06/15 01:29:44;;;;;;;;;;;;;;;-146.58;100.00;69501.63;5011745;28;20049;-64
2023/06/15 01:32:09;;;;;;;8.65;5.05;;;;;;;-146.58;100.00;69501.63;5012333;28;19913;-64
2023/06/15 01:34:36;;;;;;;12.43;5.47;;;;;;;-146.58;100.00;69501.63;5010720;28;20049;-63
2023/06/15 01:37:01;;;;;;;10.95;5.55;;;;;;;-146.58;100.00;69501.63;5012085;28;20029;-64
2023/06/15 01:39:27;;;;;;;6.13;4.13;;;;;;;-146.58;100.00;69501.63;5011058;28;20401;-64
2023/06/15 01:41:53;;;;;;;6.65;4.75;;;;;;;-146.58;100.00;69501.63;5011993;28;20496;-64
2023/06/15 01:44:19;;;;;;;9.43;5.10;;;;;;;-146.58;100.00;69501.63;5010817;28;20042;-64
2023/06/15 01:46:45;;;;;;;7.20;4.13;;;;;;;-146.58;100.00;69501.63;5011959;28;20025;-64
2023/06/15 01:49:10;;;;;;;6.30;4.38;;;;;;;-146.58;100.00;69501.63;5010318;28;20048;-64
2023/06/15 01:51:36;;;;;;;8.02;5.53;;;;;;;-146.58;100.00;69501.63;5011652;28;20107;-64
2023/06/15 01:54:02;;;;;;;12.20;4.82;;;;;;;-146.58;100.00;69501.63;5010341;28;20066;-64
2023/06/15 01:56:27;;;;;;;11.23;5.85;;;;;;;-146.58;100.00;69501.63;5012053;28;20096;-64
2023/06/15 01:58:53;;;;;;;6.38;4.53;;;;;;;-146.58;100.00;69501.63;5009929;28;20544;-64
2023/06/15 02:01:18;;;;;;;8.35;4.40;;;;;;;-146.58;100.00;69501.63;5012017;28;20026;-63
2023/06/15 02:03:43;;;;;;;7.55;5.20;;;;;;;-146.58;100.00;69501.63;5010095;28;20046;-64
2023/06/15 02:06:09;;;;;;;16.02;6.57;;;;;;;-146.58;100.00;69501.63;5011419;28;20037;-63
2023/06/15 02:08:36;;;;;;;7.55;5.45;;;;;;;-146.58;100.00;69501.63;5010438;28;20096;-63
2023/06/15 02:11:01;;;;;;;8.15;5.13;;;;;;;-146.58;100.00;69501.63;5011671;28;20095;-63
2023/06/15 02:13:26;;;;;;;6.00;5.40;;;;;;;-146.58;100.00;69501.63;5009753;28;20042;-63
2023/06/15 02:15:52;;;;;;;6.93;5.72;;;;;;;-146.58;100.00;69501.63;5011443;28;20026;-63
2023/06/15 02:18:18;;;;;;;8.35;5.13;;;;;;;-146.58;100.00;69501.63;5010438;28;20033;-63
2023/06/15 02:20:44;;;;;;;5.95;4.50;;;;;;;-146.58;100.00;69501.63;5011110;28;20036;-63
2023/06/15 02:23:10;;;;;;;8.55;5.20;;;;;;;-146.58;100.00;69501.63;5010194;28;20022;-63
2023/06/15 02:25:36;;;;;;;6.65;5.32;;;;;;;-146.58;100.00;69501.63;5011645;28;20038;-63
2023/06/15 02:28:02;;;;;;;9.10;6.03;;;;;;;-146.58;100.00;69501.63;5010893;28;20105;-63
2023/06/15 02:30:27;;;;;;;11.70;6.45;;;;;;;-146.58;100.00;69501.63;5009825;28;20049;-64
2023/06/15 02:32:53;;;;;;;12.25;6.45;;;;;;;-146.58;100.00;69501.63;5011620;28;20028;-64
2023/06/15 02:35:19;;;;;;;8.38;6.15;;;;;;;-146.58;100.00;69501.63;5009337;28;20075;-64
2023/06/15 02:37:45;;;;;;;7.75;5.93;;;;;;;-146.58;100.00;69501.63;5011198;28;20029;-64
2023/06/15 02:40:10;;;;;;;8.77;5.97;;;;;;;-146.58;100.00;69501.63;5009945;28;20041;-64
2023/06/15 02:42:37;;;;;;;8.40;5.78;;;;;;;-146.58;100.00;69501.63;5011154;28;20030;-63
2023/06/15 02:45:03;;;;;;;8.05;6.25;;;;;;;-146.58;100.00;69501.63;5009789;28;20038;-63
2023/06/15 02:47:29;;;;;;;12.20;5.70;;;;;;;-146.58;100.00;69501.63;5011259;28;20036;-64
2023/06/15 02:49:55;;;;;;;8.32;6.18;;;;;;;-146.58;100.00;69501.63;5009498;28;20129;-64
2023/06/15 02:52:20;;;;;;;10.30;5.93;;;;;;;-146.58;100.00;69501.63;5011395;28;20380;-64
2023/06/15 02:54:46;;;;;;;8.85;6.30;;;;;;;-146.58;100.00;69501.63;5009455;28;20042;-64
2023/06/15 02:57:11;;;;;;;7.65;5.97;;;;;;;-146.58;100.00;69501.63;5010315;28;20045;-64
2023/06/15 02:59:37;;;;;;;9.15;6.72;;;;;;;-146.58;100.00;69501.63;5009837;28;20053;-64
2023/06/15 03:02:06;;;;;;;6.88;6.18;;;;;;;-146.58;100.00;69501.63;5010800;28;20029;-64
2023/06/15 03:04:44;;;;;;;13.07;6.22;;;;;;;-146.58;100.00;69501.63;5009227;28;20050;-64
2023/06/15 03:07:10;;;;;;;14.47;6.00;;;;;;;-146.58;100.00;69501.63;5011184;28;20022;-63
2023/06/15 03:09:35;;;;;;;17.80;6.60;;;;;;;-146.58;100.00;69501.63;5008379;28;20125;-64
2023/06/15 03:12:00;;;;;;;22.33;6.55;;;;;;;-146.58;100.00;69501.63;5010693;28;20030;-64
2023/06/15 03:14:26;;;;;;;12.07;5.50;;;;;;;-146.58;100.00;69501.63;5009538;28;20514;-64
2023/06/15 03:16:51;;;;;;;13.52;6.90;;;;;;;-146.58;100.00;69501.63;5010464;28;20041;-63
2023/06/15 03:19:17;;;;;;;11.52;7.18;;;;;;;-146.58;100.00;69501.63;5009157;28;20042;-64
2023/06/15 03:21:47;;;;;;;11.85;5.80;;;;;;;-146.58;100.00;69501.63;5010642;28;20075;-64
2023/06/15 03:24:13;;;;;;;13.85;7.05;;;;;;;-146.58;100.00;69501.63;5009663;28;20425;-64
2023/06/15 03:26:42;;;;;;;11.05;7.25;;;;;;;-146.58;100.00;69501.63;5010773;28;20018;-65
2023/06/15 03:29:07;;;;;;;10.07;6.18;;;;;;;-146.58;100.00;69501.63;5009434;28;20048;-64
2023/06/15 03:31:40;;;;;;;13.20;7.05;;;;;;;-146.58;100.00;69501.63;5011122;28;20018;-64
2023/06/15 03:34:07;;;;;;;16.95;7.50;;;;;;;-146.58;100.00;69501.63;5009222;28;20061;-64
2023/06/15 03:36:32;;;;;;;12.80;6.07;;;;;;;-146.58;100.00;69501.63;5010750;28;20025;-65
2023/06/15 03:38:58;;;;;;;8.30;6.75;;;;;;;-146.58;100.00;69501.63;5009338;28;20042;-64
2023/06/15 03:41:26;;;;;;;13.68;6.78;;;;;;;-146.58;100.00;69501.63;5010394;28;20030;-64
2023/06/15 03:43:52;;;;;;;37.50;9.63;;;;;;;-146.58;100.00;69501.63;5008902;28;20585;-64
2023/06/15 03:46:17;;;;;;;22.17;7.97;;;;;;;-146.58;100.00;69501.63;5010706;28;20022;-64
2023/06/15 03:48:42;;;;;;;16.88;7.72;;;;;;;-146.58;100.00;69501.63;5008750;28;20034;-64
2023/06/15 03:51:08;;;;;;;17.13;6.35;;;;;;;-146.58;100.00;69501.63;5010555;28;20022;-64
2023/06/15 03:53:33;;;;;;;16.40;8.05;;;;;;;-146.58;100.00;69501.63;5009262;28;20034;-64
2023/06/15 03:55:58;;;;;;;9.02;7.38;;;;;;;-146.58;100.00;69501.63;5009841;28;20477;-64
2023/06/15 03:58:26;;;;;;;9.50;6.40;;;;;;;-146.58;100.00;69501.63;5009108;28;20443;-64
2023/06/15 04:00:52;;;;;;;20.42;7.63;;;;;;;-146.58;100.00;69501.63;5009784;28;20033;-64
2023/06/15 04:03:18;;;;;;;12.18;6.75;;;;;;;-146.58;100.00;69501.63;5008817;28;20046;-65
2023/06/15 04:05:43;;;;;;;18.45;7.72;;;;;;;-146.58;100.00;69501.63;5010369;28;20477;-64
2023/06/15 04:08:09;;;;;;;14.32;7.20;;;;;;;-146.58;100.00;69501.63;5008949;28;20021;-64
2023/06/15 04:10:35;;;;;;;10.40;7.15;;;;;;;-146.58;100.00;69501.63;5008744;28;20025;-64
2023/06/15 04:13:00;;;;;;;10.90;7.72;;;;;;;-146.58;100.00;69501.63;5009732;28;20026;-64
2023/06/15 04:15:26;;;;;;;11.18;8.85;;;;;;;-146.58;100.00;69501.63;5011408;28;20092;-63
2023/06/15 04:17:51;;;;;;;16.27;9.32;;;;;;;-146.58;100.00;69501.63;5012785;28;20034;-64
2023/06/15 04:20:16;;;;;;;18.17;7.97;;;;;;;-146.58;100.00;69501.63;5012212;28;20604;-64
2023/06/15 04:22:41;;;;;;;17.98;8.38;;;;;;;-146.58;100.00;69501.63;5012746;28;20018;-64
2023/06/15 04:25:07;;;;;;;21.30;9.65;;;;;;;-146.58;100.00;69501.63;5011326;28;20056;-64
2023/06/15 04:27:34;;;;;;;14.80;9.77;;;;;;;-146.58;100.00;69501.63;5014105;28;20032;-64
2023/06/15 04:30:00;;;;;;;10.32;8.25;;;;;;;-146.58;100.00;69501.63;5011785;28;20497;-64
2023/06/15 04:32:25;;;;;;;11.93;8.55;;;;;;;-146.58;100.00;69501.63;5013359;28;20404;-64
2023/06/15 04:34:54;;;;;;;19.95;8.55;;;;;;;-146.58;100.00;69501.63;5011920;28;20037;-64
2023/06/15 04:37:20;;;;;;;16.65;8.68;;;;;;;-146.58;100.00;69501.63;5013520;28;20037;-63
2023/06/15 04:39:45;;;;;;;13.63;7.80;;;;;;;-146.58;100.00;69501.63;5011671;28;20042;-63
2023/06/15 04:42:11;;;;;;;17.35;9.90;;;;;;;-146.58;100.00;69501.63;5012992;28;20022;-64
2023/06/15 04:44:37;;;;;;;12.20;7.18;;;;;;;-146.58;100.00;69501.63;5011830;28;20045;-64
2023/06/15 04:47:04;;;;;;;13.68;8.23;;;;;;;-146.58;100.00;69501.63;5012131;28;20025;-64
2023/06/15 04:49:30;;;;;;;10.38;7.13;;;;;;;-146.58;100.00;69501.63;5011687;28;20129;-64
2023/06/15 04:51:56;;;;;;;9.57;6.50;;;;;;;-146.58;100.00;69501.63;5013406;28;20096;-64
2023/06/15 04:54:22;;;;;;;8.15;7.07;;;;;;;-146.58;100.00;69501.63;5011456;28;20037;-64
2023/06/15 04:56:47;;;;;;;9.60;7.32;;;;;;;-146.58;100.00;69501.63;5012966;28;20033;-64
2023/06/15 04:59:13;;;;;;;12.13;6.78;;;;;;;-146.58;100.00;69501.63;5011975;28;20046;-64
2023/06/15 05:01:38;;;;;;;9.90;7.28;;;;;;;-146.58;100.00;69501.63;5013054;28;20036;-64
2023/06/15 05:04:05;;;;;;;6.35;5.70;;;;;;;-146.58;100.00;69501.63;5011184;28;20135;-64
2023/06/15 05:06:31;;;;;;;9.40;6.68;;;;;;;-146.58;100.00;69501.63;5013281;28;20049;-64
2023/06/15 05:08:56;;;;;;;16.17;6.03;;;;;;;-146.58;100.00;69501.63;5011107;28;20046;-64
2023/06/15 05:11:22;;;;;;;10.95;5.90;;;;;;;-146.58;100.00;69501.63;5012245;28;20033;-64
2023/06/15 05:13:47;;;;;;;32.90;7.45;;;;;;;-146.58;100.00;69501.63;5011335;28;20497;-64
2023/06/15 05:16:12;;;;;;;10.75;5.65;;;;;;;-146.58;100.00;69501.63;5012933;28;20485;-64
2023/06/15 05:18:38;;;;;;;8.65;5.85;;;;;;;-146.58;100.00;69501.63;5011220;28;20117;-64
2023/06/15 05:21:03;;;;;;;10.52;5.78;;;;;;;-146.58;100.00;69501.63;5012487;28;20044;-64
2023/06/15 05:23:28;;;;;;;21.90;7.55;;;;;;;-146.58;100.00;69501.63;5011219;28;20092;-64
2023/06/15 05:25:54;;;;;;;9.32;5.07;;;;;;;-146.58;100.00;69501.63;5011963;28;20025;-65
2023/06/15 05:28:20;;;;;;;6.80;6.10;;;;;;;-146.58;100.00;69501.63;5011422;28;20030;-64
2023/06/15 05:30:45;;;;;;;9.30;4.30;;;;;;;-146.58;100.00;69501.63;5012385;28;20021;-65
2023/06/15 05:33:11;;;;;;;8.88;6.70;;;;;;;-146.58;100.00;69501.63;5010821;28;20038;-64
2023/06/15 05:35:36;;;;;;;6.03;4.00;;;;;;;-146.58;100.00;69501.63;5012335;28;20032;-64
2023/06/15 05:38:01;;;;;;;9.48;4.90;;;;;;;-146.58;100.00;69501.63;5010825;28;20037;-64
2023/06/15 05:40:27;;;;;;;11.20;4.80;;;;;;;-146.58;100.00;69501.63;5011965;28;20021;-65
2023/06/15 05:42:52;;;;;;;6.13;4.85;;;;;;;-146.58;100.00;69501.63;5012425;28;20022;-65
2023/06/15 05:45:17;;;;;;;9.77;5.28;;;;;;;-146.58;100.00;69501.63;5010724;28;20073;-64
2023/06/15 05:47:43;;;;;;;5.78;5.20;;;;;;;-146.58;100.00;69501.63;5011756;28;20026;-64
2023/06/15 05:50:09;;;;;;;9.27;4.68;;;;;;;-146.58;100.00;69501.63;5010779;28;20070;-64
2023/06/15 05:52:34;;;;;;;8.82;4.22;;;;;;;-146.58;100.00;69501.63;5012296;28;20061;-64
2023/06/15 05:55:00;;;;;;;14.50;4.55;;;;;;;-146.58;100.00;69501.63;5010017;28;20500;-65
2023/06/15 05:57:25;;;;;;;4.38;3.67;;;;;;;-146.58;100.00;69501.63;5012198;28;20377;-65
2023/06/15 05:59:50;;;;;;;7.07;5.03;;;;;;;-146.58;100.00;69501.63;5010461;28;20049;-64
2023/06/15 06:02:16;;;;;;;12.13;5.18;;;;;;;-146.58;100.00;69501.63;5011478;28;20022;-64
2023/06/15 06:04:41;;;;;;;10.77;6.00;;;;;;;-146.58;100.00;69501.63;5010500;28;20076;-64
2023/06/15 06:07:07;;;;;;;8.23;5.18;;;;;;;-146.58;100.00;69501.63;5011899;28;20444;-65
2023/06/15 06:09:33;;;;;;;6.40;3.70;;;;;;;-146.58;100.00;69501.63;5010204;28;20042;-65
2023/06/15 06:11:58;;;;;;;8.77;4.88;;;;;;;-146.58;100.00;69501.63;5011158;28;20029;-65
2023/06/15 06:14:25;;;;;;;4.47;3.80;;;;;;;-146.58;100.00;69501.63;5009679;28;20046;-65
2023/06/15 06:16:50;;;;;;;4.28;3.13;;;;;;;-146.58;100.00;69501.63;5011173;28;20111;-65
2023/06/15 06:19:16;;;;;;;32.72;4.82;;;;;;;-146.58;100.00;69501.63;5010373;28;20480;-66
2023/06/15 06:21:41;;;;;;;9.30;5.22;;;;;;;-146.58;100.00;69501.63;5011466;28;20024;-64
2023/06/15 06:24:07;;;;;;;4.00;3.30;;;;;;;18.66;100.00;165447.84;5009885;28;20616;-65
2023/06/15 06:26:36;;;;;;;7.75;3.60;;;;;;;18.66;100.00;165447.84;5011570;28;20541;-65
2023/06/15 06:29:03;;;;;;;7.78;3.58;;;;;;;-146.58;100.00;69501.63;5010035;28;20049;-65
2023/06/15 06:31:28;;;;;;;16.33;4.03;;;;;;;-146.58;100.00;69501.63;5011417;28;20033;-65
2023/06/15 06:33:54;;;;;;;6.05;2.95;;;;;;;-146.58;100.00;69501.63;5009853;28;20582;-65
2023/06/15 06:36:19;;;;;;;5.80;3.17;;;;;;;-146.58;100.00;69501.63;5010802;28;20030;-65
2023/06/15 06:38:44;;;;;;;4.93;3.85;;;;;;;-146.58;100.00;69501.63;5009608;28;20042;-65
2023/06/15 06:41:10;;;;;;;11.02;3.17;;;;;;;-146.58;100.00;69501.63;5011402;28;20022;-65
2023/06/15 06:43:35;;;;;;;8.70;3.72;;;;;;;-146.58;100.00;69501.63;5010014;28;20042;-65
2023/06/15 06:46:01;;;;;;;11.48;4.20;;;;;;;-146.58;100.00;69501.63;5010752;28;20025;-65
2023/06/15 06:48:26;;;;;;;6.75;3.03;;;;;;;-146.58;100.00;69501.63;5009482;28;20042;-65
2023/06/15 06:50:51;;;;;;;12.85;5.03;;;;;;;-146.58;100.00;69501.63;5010580;28;20440;-65
2023/06/15 06:53:17;;;;;;;9.90;4.28;;;;;;;-146.58;100.00;69501.63;5009724;28;20025;-65
2023/06/15 06:55:44;;;;;;;7.35;4.25;;;;;;;20.86;100.00;166027.41;5010800;28;20037;-65
2023/06/15 06:58:10;;;;;;;8.10;3.38;;;;;;;20.94;100.00;166046.44;5010094;28;20026;-65
2023/06/15 07:00:35;;;;;;;7.57;2.90;;;;;;;21.12;100.00;166095.28;5011073;28;20374;-65
2023/06/15 07:03:01;;;;;;;6.97;3.67;;;;;;;-146.58;100.00;69501.63;5010766;28;20049;-65
2023/06/15 07:05:26;;;;;;;7.30;4.07;;;;;;;-146.58;100.00;69501.63;5028788;28;20560;-65
2023/06/15 07:07:51;;;;;;;8.50;3.38;;;;;;;-146.58;100.00;69501.63;5030401;28;20152;-65
2023/06/15 07:10:17;;;;;;;14.35;5.38;;;;;;;-146.58;100.00;69501.63;5010977;28;20037;-65
2023/06/15 07:12:42;;;;;;;14.45;5.18;;;;;;;-146.58;100.00;69501.63;5010752;28;20026;-65
2023/06/15 07:15:08;;;;;;;5.05;3.92;;;;;;;-146.58;100.00;69501.63;5009083;28;20049;-65
2023/06/15 07:17:33;;;;;;;10.85;6.15;;;;;;;-146.58;100.00;69501.63;5010877;28;20026;-65
2023/06/15 07:19:59;;;;;;;11.88;3.67;;;;;;;-146.58;100.00;69501.63;5009253;28;20042;-65
2023/06/15 07:22:24;;;;;;;7.57;3.33;;;;;;;-146.58;100.00;69501.63;5010674;28;20439;-65
2023/06/15 07:24:50;;;;;;;6.72;2.55;;;;;;;-146.58;100.00;69501.63;5009404;28;20173;-65
2023/06/15 07:27:17;;;;;;;8.40;2.85;;;;;;;-146.58;100.00;69501.63;5010995;28;20469;-65
2023/06/15 07:29:42;;;;;;;6.63;3.00;;;;;;;-146.58;100.00;69501.63;5009001;28;20446;-65
2023/06/15 07:32:07;;;;;;;4.10;3.10;;;;;;;-146.58;100.00;69501.63;5010629;28;20033;-65
2023/06/15 07:34:33;;;;;;;10.02;4.53;;;;;;;-146.58;100.00;69501.63;5009416;28;20053;-65
2023/06/15 07:36:58;;;;;;;8.00;3.22;;;;;;;-146.58;100.00;69501.63;5010498;28;20033;-65
2023/06/15 07:39:23;;;;;;;8.93;3.25;;;;;;;-146.58;100.00;69501.63;5007867;28;20042;-65
2023/06/15 07:41:49;;;;;;;4.22;3.10;;;;;;;-146.58;100.00;69501.63;5010415;28;20416;-65
2023/06/15 07:44:14;;;;;;;5.68;2.33;;;;;;;-146.58;100.00;69501.63;5009404;28;20064;-65
2023/06/15 07:46:40;;;;;;;9.13;3.42;;;;;;;-146.58;100.00;69501.63;5009985;28;20072;-65
2023/06/15 07:49:05;;;;;;;11.68;3.17;;;;;;;-146.58;100.00;69501.63;5012025;28;20549;-65
2023/06/15 07:51:30;;;;;;;9.05;3.20;;;;;;;-146.58;100.00;69501.63;5014766;28;20329;-65
2023/06/15 07:53:56;;;;;;;4.03;3.35;;;;;;;-146.58;100.00;69501.63;5011710;28;20404;-65
2023/06/15 07:56:21;;;;;;;5.53;4.35;;;;;;;-146.58;100.00;69501.63;5013624;28;20018;-65
2023/06/15 07:58:46;;;;;;;11.13;3.97;;;;;;;-146.58;100.00;69501.63;5012846;28;20096;-65
2023/06/15 08:01:12;;;;;;;8.07;3.88;;;;;;;-146.58;100.00;69501.63;5013918;28;20033;-65
2023/06/15 08:03:37;;;;;;;14.88;4.13;;;;;;;-146.58;100.00;69501.63;5012584;28;20038;-65
2023/06/15 08:06:03;;;;;;;8.43;3.95;;;;;;;-146.58;100.00;69501.63;5012958;28;20029;-65
2023/06/15 08:08:28;;;;;;;8.23;3.70;;;;;;;-146.58;100.00;69501.63;4999675;28;20042;-66
2023/06/15 08:10:53;;;;;;;10.02;4.70;;;;;;;-146.58;100.00;69501.63;5013928;28;20025;-65
2023/06/15 08:13:20;;;;;;;9.07;3.45;;;;;;;-146.58;100.00;69501.63;5012839;28;20018;-65
2023/06/15 08:15:46;;;;;;;8.40;3.20;;;;;;;-146.58;100.00;69501.63;5013166;28;20097;-64
2023/06/15 08:18:11;;;;;;;6.50;3.53;;;;;;;-146.58;100.00;69501.63;5012788;28;20439;-64
2023/06/15 08:20:36;;;;;;;6.32;3.40;;;;;;;-146.58;100.00;69501.63;5014065;28;20109;-64
2023/06/15 08:23:02;;;;;;;9.48;3.70;;;;;;;-146.58;100.00;69501.63;5011889;28;20426;-62
2023/06/15 08:25:27;;;;;;;7.95;3.25;;;;;;;-146.58;100.00;69501.63;5010115;28;20034;-64
2023/06/15 08:27:53;;;;;;;7.35;3.53;;;;;;;-146.58;100.00;69501.63;5012739;28;20030;-64
2023/06/15 08:30:19;;;;;;;4.70;2.88;;;;;;;-146.58;100.00;69501.63;5011359;28;20034;-64
2023/06/15 08:32:44;;;;;;;8.32;3.50;;;;;;;-146.58;100.00;69501.63;5013172;28;20510;-64
2023/06/15 08:35:10;;;;;;;10.00;3.63;;;;;;;-146.58;100.00;69501.63;5012012;28;20038;-64
2023/06/15 08:37:35;;;;;;;6.90;3.70;;;;;;;-146.58;100.00;69501.63;5013402;28;20373;-64
2023/06/15 08:40:06;;;;;;;4.65;2.97;;;;;;;-146.58;100.00;69501.63;5011836;28;20126;-64
2023/06/15 08:42:33;;;;;;;6.72;3.35;;;;;;;-146.58;100.00;69501.63;5013609;28;20032;-64
2023/06/15 08:45:00;;;;;;;13.43;3.10;;;;;;;-146.58;100.00;69501.63;5011289;28;20042;-65
2023/06/15 08:47:27;;;;;;;6.83;4.63;;;;;;;-146.58;100.00;69501.63;5013476;28;20519;-65
2023/06/15 08:49:52;;;;;;;6.50;3.28;;;;;;;-146.58;100.00;69501.63;5011729;28;20091;-65
2023/06/15 08:52:23;;;;;;;8.68;3.10;;;;;;;-146.58;100.00;69501.63;5012590;28;20029;-65
2023/06/15 08:54:52;;;;;;;9.63;3.63;;;;;;;24.99;100.00;167114.97;5011554;28;20045;-64
2023/06/15 08:57:17;;;;;;;5.18;3.10;;;;;;;25.25;100.00;167181.63;5013196;28;20086;-65
2023/06/15 08:59:43;;;;;;;8.25;3.33;;;;;;;25.17;100.00;167161.25;5010728;28;20061;-64
2023/06/15 09:02:14;;;;;;;3.17;2.78;;;;;;;25.53;100.00;167256.53;5012945;28;20469;-64
2023/06/15 09:04:39;;;;;;;3.22;2.92;;;;;;;25.79;100.00;167324.59;5011620;28;20096;-65
2023/06/15 09:07:05;;;;;;;4.72;2.80;;;;;;;26.03;100.00;167387.19;5012949;28;20018;-65
2023/06/15 09:09:30;;;;;;;5.53;2.22;;;;;;;25.96;100.00;167369.53;5011650;28;20050;-64
2023/06/15 09:11:56;;;;;;;6.28;2.75;;;;;;;-146.58;100.00;69501.63;5012829;28;20026;-65
2023/06/15 09:14:22;;;;;;;6.13;2.88;;;;;;;-146.58;100.00;69501.63;5010887;28;20046;-64
2023/06/15 09:16:50;;;;;;;3.20;2.22;;;;;;;-146.58;100.00;69501.63;5012522;28;20088;-65
2023/06/15 09:19:16;;;;;;;4.25;2.67;;;;;;;-146.58;100.00;69501.63;5011509;28;20561;-65
2023/06/15 09:21:51;;;;;;;5.78;2.80;;;;;;;-146.58;100.00;69501.63;5012359;28;20032;-65
2023/06/15 09:24:18;;;;;;;9.18;3.53;;;;;;;-146.58;100.00;69501.63;5011384;28;20587;-65
2023/06/15 09:26:45;;;;;;;5.32;2.47;;;;;;;-146.58;100.00;69501.63;5012605;28;20034;-65
2023/06/15 09:29:14;;;;;;;4.50;3.20;;;;;;;-146.58;100.00;69501.63;5010899;28;20038;-65
2023/06/15 09:31:42;;;;;;;4.80;3.28;;;;;;;-146.58;100.00;69501.63;5012824;28;20452;-65
2023/06/15 09:34:10;;;;;;;7.05;2.85;;;;;;;-146.58;100.00;69501.63;5011034;28;20066;-65
2023/06/15 09:36:49;;;;;;;8.10;3.90;;;;;;;-146.58;100.00;69501.63;5012057;28;20022;-65
2023/06/15 09:39:15;;;;;;;7.15;2.55;;;;;;;-146.58;100.00;69501.63;5011174;28;20471;-65
2023/06/15 09:41:56;;;;;;;6.03;2.83;;;;;;;-146.58;100.00;69501.63;5012142;28;20096;-65
2023/06/15 09:44:22;;;;;;;8.68;2.45;;;;;;;-146.58;100.00;69501.63;5010658;28;20402;-65
2023/06/15 09:46:50;;;;;;;5.45;3.58;;;;;;;-146.58;100.00;69501.63;5012131;28;20029;-65
2023/06/15 09:49:23;;;;;;;4.88;2.70;;;;;;;-146.58;100.00;69501.63;5010840;28;20057;-65
2023/06/15 09:51:52;;;;;;;7.05;4.07;;;;;;;-146.58;100.00;69501.63;5011823;28;20021;-65
2023/06/15 09:54:20;;;;;;;8.15;3.45;;;;;;;-146.58;100.00;69501.63;5010667;28;20045;-65
2023/06/15 09:56:48;;;;;;;4.32;2.70;;;;;;;-146.58;100.00;69501.63;5011374;28;20026;-65
2023/06/15 09:59:14;;;;;;;3.38;2.13;;;;;;;-146.58;100.00;69501.63;5016950;28;20038;-65
2023/06/15 10:01:41;;;;;;;8.85;2.88;;;;;;;-146.58;100.00;69501.63;5031790;28;20040;-64
2023/06/15 10:04:07;;;;;;;3.55;2.35;;;;;;;-146.58;100.00;69501.63;5030073;28;20041;-65
2023/06/15 10:06:33;;;;;;;4.85;3.55;;;;;;;-146.58;100.00;69501.63;5031545;28;20109;-65
2023/06/15 10:09:00;;;;;;;20.73;3.03;;;;;;;-146.58;100.00;69501.63;5029643;28;20052;-65
2023/06/15 10:11:27;;;;;;;6.43;2.42;;;;;;;-146.58;100.00;69501.63;5030562;28;20025;-65
2023/06/15 10:13:57;;;;;;;5.43;2.50;;;;;;;-146.58;100.00;69501.63;5029502;28;20042;-64
2023/06/15 10:16:23;;;;;;;7.93;2.40;;;;;;;-146.58;100.00;69501.63;5030881;28;20106;-64
2023/06/15 10:19:04;;;;;;;8.98;3.58;;;;;;;-146.58;100.00;69501.63;5029630;28;20045;-65
2023/06/15 10:21:34;;;;;;;8.25;2.75;;;;;;;25.96;100.00;167369.53;5030279;28;20104;-65
2023/06/15 10:24:05;;;;;;;4.45;2.20;;;;;;;25.15;100.00;167155.78;5029882;28;20087;-65
2023/06/15 10:26:31;;;;;;;6.75;4.07;;;;;;;25.85;100.00;167339.53;5030549;28;20024;-64
2023/06/15 10:29:01;;;;;;;5.05;3.08;;;;;;;26.40;98.22;167486.63;5028717;28;20049;-65
2023/06/15 10:32:00;;;;;;;8.27;2.90;;;;;;;-146.58;100.00;69501.63;5030892;28;20029;-65
2023/06/15 10:34:42;;;;;;;6.30;3.20;;;;;;;-146.58;100.00;69501.63;5028502;28;20034;-65
2023/06/15 10:37:20;;;;;;;9.35;2.83;;;;;;;-146.58;100.00;69501.63;5031432;28;20028;-64
2023/06/15 10:39:47;;;;;;;;;;;;;;;-146.58;100.00;69501.63;5030042;28;20041;-65
2023/06/15 10:42:13;;;;;;;4.32;3.40;;;;;;;-146.58;100.00;69501.63;5030800;28;19909;-65
2023/06/15 10:44:39;;;;;;;9.15;2.40;;;;;;;-146.58;100.00;69501.63;5029748;28;20119;-65
2023/06/15 10:47:05;;;;;;;3.72;2.20;;;;;;;-146.58;100.00;69501.63;5030639;28;20554;-65
2023/06/15 10:49:31;;;;;;;8.50;3.63;;;;;;;-146.58;100.00;69501.63;5029239;28;20566;-65
2023/06/15 10:51:56;;;;;;;4.43;1.90;;;;;;;-146.58;100.00;69501.63;5031063;28;20025;-65
2023/06/15 10:54:23;;;;;;;8.65;2.53;;;;;;;-146.58;100.00;69501.63;5029401;28;20573;-65
2023/06/15 10:56:57;;;;;;;3.42;2.83;;;;;;;-146.58;100.00;69501.63;5030701;28;20108;-65
2023/06/15 10:59:38;;;;;;;9.02;3.45;;;;;;;-146.58;100.00;69501.63;5029472;28;20048;-65
2023/06/15 11:02:31;;;;;;;6.00;2.75;;;;;;;-146.58;100.00;69501.63;5030916;28;20075;-65
2023/06/15 11:05:09;;;;;;;6.32;3.03;;;;;;;-146.58;100.00;69501.63;5023672;28;20111;-64